ADDS METAR Data INFO
IDs: Format: Raw Decoded Include TAF

Data at: 0201 UTC 17 Oct 2017

KISO 170156Z 01007KT 10SM BKN080 14/11 A3018 RMK AO2
KISO 170056Z 36006KT 10SM OVC050 15/12 A3016 RMK AO2
KISO 162356Z 01007KT 10SM OVC048 15/12 A3014 RMK AO2
KISO 162256Z 01005KT 10SM OVC046 15/12 A3012 RMK AO2
KISO 162156Z 03013G20KT 10SM OVC039 14/12 A3009 RMK AO2
KISO 162056Z 01010KT 10SM OVC035 14/13 A3008 RMK AO2
KISO 161956Z 01011KT 10SM OVC029 14/13 A3006 RMK AO2
KISO 161856Z 35012G19KT 2SM RA BKN009 BKN015 OVC033 15/13 A3005 RMK AO2
KISO 161756Z 34012G21KT 10SM BKN017 OVC029 17/14 A3004 RMK AO2
KISO 161656Z 35017G23KT 7SM DZ OVC011 18/16 A3003 RMK AO2
KISO 161556Z 36006KT 7SM BKN021 BKN026 OVC055 25/20 A3001 RMK AO2
KISO 161456Z 33006KT 10SM OVC015 24/20 A3001 RMK AO2
KISO 161405Z 31004KT 7SM BKN013 23/21 A3001 RMK AO2
KISO 161356Z 29005KT 10SM SCT080 23/21 A3001 RMK AO2
KISO 161256Z 24003KT 7SM BKN042 BKN050 20/20 A3001 RMK AO2
KISO 161156Z 22003KT 4SM BR SCT004 18/18 A2999 RMK AO2
KISO 161056Z 00000KT 1SM FG VV007 18/18 A2999 RMK AO2
KISO 161040Z AUTO 22003KT 2SM BR CLR 18/18 A2999 RMK AO2 T01790178
KISO 161020Z AUTO 21003KT 2 1/2SM BR CLR 18/18 A2998 RMK AO2 T01770177
KISO 161005Z AUTO 19003KT 2 1/2SM BR CLR 18/18 A2998 RMK AO2 T01770177
KISO 160945Z AUTO 20003KT 3SM BR CLR 18/18 A2999 RMK AO2 T01770176
KISO 160925Z AUTO 21004KT 4SM BR CLR 18/18 A2999 RMK AO2 T01790177
KISO 160905Z AUTO 22003KT 2SM BR CLR 17/17 A2998 RMK AO2 T01740173
KISO 160845Z AUTO 22003KT 1 1/2SM BR VV007 17/17 A2998 RMK AO2 T01720171
KISO 160825Z AUTO 21003KT 5SM BR CLR 18/17 A2999 RMK AO2 T01750172
KISO 160805Z AUTO 23003KT 3SM BR CLR 18/18 A2998 RMK AO2 T01800178
KISO 160745Z AUTO 25003KT 1 3/4SM BR VV007 18/18 A2998 RMK AO2 T01790177
KISO 160725Z AUTO 18004KT 2 1/2SM BR CLR 18/18 A2998 RMK AO2 T01830182
KISO 160705Z AUTO 21003KT 3SM BR CLR 19/18 A2999 RMK AO2 T01850182
KISO 160645Z AUTO 00000KT 5SM BR CLR 19/19 A2999 RMK AO2 T01880185
KISO 160625Z AUTO 24003KT 5SM BR CLR 19/19 A3000 RMK AO2 T01920192
KISO 160605Z AUTO 22004KT 7SM CLR 19/19 A3000 RMK AO2 T01940190
KISO 160545Z AUTO 20005KT 7SM CLR 19/19 A3000 RMK AO2 T01910187
KISO 160525Z AUTO 23003KT 7SM CLR 19/18 A3001 RMK AO2 T01890184
KISO 160445Z AUTO 00000KT 7SM CLR 20/19 A3001 RMK AO2 T02000193
KISO 160425Z AUTO 00000KT 10SM CLR 21/20 A3002 RMK AO2 T02050196
KISO 160405Z AUTO 23004KT 10SM CLR 21/20 A3002 RMK AO2 T02070196
KISO 160345Z AUTO 19008KT 10SM CLR 21/20 A3001 RMK AO2 T02080198
KISO 160325Z AUTO 19006KT 10SM CLR 21/20 A3002 RMK AO2 T02090199
KISO 160305Z AUTO 19004KT 10SM CLR 21/20 A3003 RMK AO2 T02080196
KISO 160225Z AUTO 20005KT 10SM CLR 21/20 A3004 RMK AO2 T02130195
KISO 160156Z 18006KT 10SM CLR 22/19 A3004 RMK AO2
KISO 160056Z 19007KT 10SM CLR 23/18 A3004 RMK AO2
KISO 152356Z 20006KT 10SM CLR 23/18 A3004 RMK AO2
KISO 152256Z 19003KT 10SM CLR 23/18 A3004 RMK AO2
KISO 152156Z 20006KT 10SM CLR 27/17 A3004 RMK AO2
KISO 152056Z 20009KT 10SM CLR 29/16 A3005 RMK AO2
KISO 151956Z 20008KT 10SM CLR 29/16 A3006 RMK AO2
KISO 151856Z 21008KT 10SM CLR 29/17 A3007 RMK AO2
KISO 151756Z 19008KT 10SM CLR 28/18 A3010 RMK AO2
KISO 151656Z 20007KT 10SM CLR 27/18 A3014 RMK AO2
KISO 151556Z 23005KT 10SM CLR 26/18 A3017 RMK AO2
KISO 151456Z 20006KT 10SM SCT019 24/19 A3018 RMK AO2